Time,TemperatureF,DewpointF,PressureIn,WindDirection,WindDirectionDegrees,WindSpeedMPH,WindSpeedGustMPH,Humidity,HourlyPrecipIn,Conditions,Clouds,dailyrainin,SolarRadiationWatts/m^2,SoftwareType,DateUTC
2013-09-21 02:00:00,48.0,38.0,29.85,ESE,121,1.0,-999.0,70,-99.99,,,-99.99,0.070000,,2013-09-21 08:00:00,
2013-09-21 02:52:00,48.0,38.0,29.85,ESE,121,1.0,-999.0,70,-99.99,,,-99.99,0.070000,,2013-09-21 08:52:00,
2013-09-21 04:00:00,47.0,38.0,29.82,ESE,122,1.0,-999.0,71,-99.99,,,-99.99,0.040000,,2013-09-21 10:00:00,
2013-09-21 04:52:00,47.0,38.0,29.82,ESE,122,1.0,-999.0,71,-99.99,,,-99.99,0.040000,,2013-09-21 10:52:00,
2013-09-21 05:00:00,45.0,37.0,29.80,ESE,120,3.0,-999.0,74,-99.99,,,-99.99,0.030000,,2013-09-21 11:00:00,
2013-09-21 05:52:00,45.0,37.0,29.80,ESE,120,3.0,-999.0,74,-99.99,,,-99.99,0.030000,,2013-09-21 11:52:00,
2013-09-21 06:00:00,45.0,38.0,29.79,SE,129,3.0,-999.0,75,-99.99,,,-99.99,0.030000,,2013-09-21 12:00:00,
2013-09-21 06:52:00,45.0,38.0,29.79,SE,129,3.0,-999.0,75,-99.99,,,-99.99,0.030000,,2013-09-21 12:52:00,
2013-09-21 07:00:00,45.0,38.0,29.78,SE,142,2.0,-999.0,76,-99.99,,,-99.99,3.810000,,2013-09-21 13:00:00,
2013-09-21 07:53:00,45.0,38.0,29.78,SE,142,2.0,-999.0,76,-99.99,,,-99.99,3.810000,,2013-09-21 13:53:00,
2013-09-21 08:00:00,48.0,40.0,29.77,SSE,160,3.0,-999.0,73,-99.99,,,-99.99,87.900002,,2013-09-21 14:00:00,
2013-09-21 08:52:00,48.0,40.0,29.77,SSE,160,3.0,-999.0,73,-99.99,,,-99.99,87.900002,,2013-09-21 14:52:00,
2013-09-21 09:00:00,53.0,41.0,29.76,SE,142,5.0,-999.0,65,-99.99,,,-99.99,191.500000,,2013-09-21 15:00:00,
2013-09-21 09:55:00,53.0,41.0,29.76,SE,142,5.0,-999.0,65,-99.99,,,-99.99,191.500000,,2013-09-21 15:55:00,
2013-09-21 10:00:00,58.0,40.0,29.76,SSE,155,7.0,-999.0,51,-99.99,,,-99.99,357.899994,,2013-09-21 16:00:00,
2013-09-21 10:54:00,58.0,40.0,29.76,SSE,155,7.0,-999.0,51,-99.99,,,-99.99,357.899994,,2013-09-21 16:54:00,
2013-09-21 11:00:00,63.0,39.0,29.74,SSE,166,8.0,-999.0,41,-99.99,,,-99.99,490.200012,,2013-09-21 17:00:00,
2013-09-21 11:52:00,63.0,39.0,29.74,SSE,166,8.0,-999.0,41,-99.99,,,-99.99,490.200012,,2013-09-21 17:52:00,
2013-09-21 13:00:00,71.0,40.0,29.71,SSE,164,11.0,-999.0,32,-99.99,,,-99.99,614.299988,,2013-09-21 19:00:00,
2013-09-21 13:52:00,71.0,40.0,29.71,SSE,164,11.0,-999.0,32,-99.99,,,-99.99,614.299988,,2013-09-21 19:52:00,
2013-09-21 16:00:00,79.0,39.0,29.63,SSE,164,9.0,-999.0,24,-99.99,,,-99.99,468.299988,,2013-09-21 22:00:00,
2013-09-21 16:53:00,79.0,39.0,29.63,SSE,164,9.0,-999.0,24,-99.99,,,-99.99,468.299988,,2013-09-21 22:53:00,
2013-09-21 17:00:00,79.0,37.0,29.62,SSE,150,10.0,-999.0,22,-99.99,,,-99.99,337.500000,,2013-09-21 23:00:00,
2013-09-21 17:53:00,79.0,37.0,29.62,SSE,150,10.0,-999.0,22,-99.99,,,-99.99,337.500000,,2013-09-21 23:53:00,
2013-09-21 21:00:00,-999.0,-99.9,29.61,SE,136,5.0,-999.0,-999,-99.99,,,-99.99,,,2013-09-22 03:00:00,
2013-09-21 21:54:00,63.0,46.0,29.61,SE,136,5.0,-999.0,53,-99.99,,,-99.99,0.190000,,2013-09-22 03:54:00,
2013-09-21 22:54:00,63.0,45.0,29.61,SSE,155,5.0,-999.0,52,-99.99,,,-99.99,0.110000,,2013-09-22 04:54:00,
2013-09-21 23:00:00,61.0,44.0,29.61,SSE,165,5.0,-999.0,53,-99.99,,,-99.99,0.100000,,2013-09-22 05:00:00,
2013-09-21 23:53:00,61.0,44.0,29.61,SSE,165,5.0,-999.0,53,-99.99,,,-99.99,0.100000,,2013-09-22 05:53:00,